createdAt,value
2023-09-01T00:04:25.905Z,20.81
2023-09-01T00:09:47.813Z,20.81
2023-09-01T00:15:10.068Z,20.80
2023-09-01T00:20:36.140Z,20.79
2023-09-01T00:25:59.722Z,20.80
2023-09-01T00:31:22.367Z,20.79
2023-09-01T00:36:44.913Z,20.79
2023-09-01T00:42:06.946Z,20.78
2023-09-01T00:47:29.052Z,20.78
2023-09-01T00:52:50.945Z,20.78
2023-09-01T00:58:13.055Z,20.77
2023-09-01T01:03:35.849Z,20.76
2023-09-01T01:09:10.630Z,20.77
2023-09-01T01:14:46.611Z,20.77
2023-09-01T01:20:28.737Z,20.71
2023-09-01T01:25:54.408Z,20.73
2023-09-01T01:31:16.510Z,20.72
2023-09-01T01:37:08.330Z,20.74
2023-09-01T01:42:32.784Z,20.72
2023-09-01T01:47:55.116Z,20.72
2023-09-01T01:53:17.221Z,20.71
2023-09-01T01:58:41.089Z,20.71
2023-09-01T02:04:03.001Z,20.72
2023-09-01T02:09:24.871Z,20.72
2023-09-01T02:14:46.711Z,20.71
2023-09-01T02:20:20.793Z,20.70
2023-09-01T02:25:42.673Z,20.71
2023-09-01T02:31:10.854Z,20.72
2023-09-01T02:36:34.914Z,20.71
2023-09-01T02:41:56.962Z,20.70
2023-09-01T02:47:18.825Z,20.71
2023-09-01T02:52:40.816Z,20.71
2023-09-01T02:58:02.678Z,20.70
2023-09-01T03:03:25.502Z,20.69
2023-09-01T03:08:47.470Z,20.68
2023-09-01T03:14:09.284Z,20.68
2023-09-01T03:19:31.171Z,20.68
2023-09-01T03:24:54.646Z,20.67
2023-09-01T03:30:17.176Z,20.67
2023-09-01T03:35:39.376Z,20.66
2023-09-01T03:41:05.989Z,20.66
2023-09-01T03:46:27.878Z,20.65
2023-09-01T03:51:49.919Z,20.65
2023-09-01T03:57:11.714Z,20.64
2023-09-01T04:02:33.570Z,20.65
2023-09-01T04:07:55.573Z,20.64
2023-09-01T04:13:17.509Z,20.63
2023-09-01T04:18:39.846Z,20.63
2023-09-01T04:24:01.810Z,20.63
2023-09-01T04:29:23.800Z,20.61
2023-09-01T04:34:45.682Z,20.63
2023-09-01T04:40:09.988Z,20.63
2023-09-01T04:45:31.959Z,20.61
2023-09-01T04:50:54.492Z,20.61
2023-09-01T04:56:16.663Z,20.60
2023-09-01T05:01:38.605Z,20.60
2023-09-01T05:07:00.832Z,20.59
2023-09-01T05:12:22.907Z,20.59
2023-09-01T05:17:45.095Z,20.58
2023-09-01T05:23:07.233Z,20.58
2023-09-01T05:28:29.356Z,20.58
2023-09-01T05:33:51.373Z,20.57
2023-09-01T05:39:13.642Z,20.56
2023-09-01T05:44:37.137Z,20.57
2023-09-01T05:49:59.090Z,20.55
2023-09-01T05:55:20.991Z,20.56
2023-09-01T06:00:43.170Z,20.56
2023-09-01T06:06:05.116Z,20.56
2023-09-01T06:11:27.961Z,20.55
2023-09-01T06:16:52.538Z,20.54
2023-09-01T06:22:15.270Z,20.54
2023-09-01T06:27:38.767Z,20.55
2023-09-01T06:33:00.884Z,20.54
2023-09-01T06:38:22.799Z,20.55
2023-09-01T06:43:44.775Z,20.55
2023-09-01T06:49:06.646Z,20.53
2023-09-01T06:54:28.695Z,20.54
2023-09-01T06:59:50.659Z,20.52
2023-09-01T07:05:12.570Z,20.53
2023-09-01T07:10:34.426Z,20.52
2023-09-01T07:15:56.381Z,20.52
2023-09-01T07:21:18.315Z,20.52
2023-09-01T07:26:40.399Z,20.50
2023-09-01T07:32:02.466Z,20.51
2023-09-01T07:37:24.469Z,20.51
2023-09-01T07:42:46.371Z,20.51
2023-09-01T07:48:20.642Z,20.51
2023-09-01T07:53:43.853Z,20.49
2023-09-01T07:59:05.948Z,20.50
2023-09-01T08:04:27.973Z,20.50
2023-09-01T08:09:50.064Z,20.48
2023-09-01T08:15:12.910Z,20.49
2023-09-01T08:20:34.881Z,20.49
2023-09-01T08:25:56.899Z,20.48
2023-09-01T08:31:18.975Z,20.48
2023-09-01T08:36:40.886Z,20.48
2023-09-01T08:42:04.201Z,20.47
2023-09-01T08:47:27.618Z,20.48
2023-09-01T08:52:50.116Z,20.49
2023-09-01T08:58:12.067Z,20.49
2023-09-01T09:03:34.691Z,20.51
2023-09-01T09:09:20.362Z,20.52
2023-09-01T09:14:57.252Z,20.51
2023-09-01T09:20:21.303Z,20.49
2023-09-01T09:25:43.193Z,20.50
2023-09-01T09:31:05.119Z,20.52
2023-09-01T09:36:35.071Z,20.53
2023-09-01T09:41:58.482Z,20.53
2023-09-01T09:47:20.605Z,20.55
2023-09-01T09:52:44.320Z,20.57
2023-09-01T09:58:08.793Z,20.59
2023-09-01T10:03:31.299Z,20.60
2023-09-01T10:08:55.361Z,20.60
2023-09-01T10:14:17.805Z,20.62
2023-09-01T10:19:40.170Z,20.64
2023-09-01T10:25:16.927Z,20.68
2023-09-01T10:30:47.420Z,20.69
2023-09-01T10:36:14.912Z,20.69
2023-09-01T10:41:54.309Z,20.71
2023-09-01T10:47:36.288Z,20.73
2023-09-01T10:53:33.255Z,20.76
2023-09-01T10:59:03.009Z,20.75
2023-09-01T11:04:29.261Z,20.80
2023-09-01T11:09:51.886Z,20.83
2023-09-01T11:15:13.780Z,20.89
2023-09-01T11:20:35.843Z,20.93
2023-09-01T11:26:01.529Z,21.00
2023-09-01T11:31:23.824Z,21.06
2023-09-01T11:36:51.462Z,21.13
2023-09-01T11:42:13.397Z,21.19
2023-09-01T11:47:35.937Z,21.26
2023-09-01T11:52:58.530Z,21.25
2023-09-01T11:58:20.475Z,21.26
2023-09-01T12:03:49.822Z,21.30
2023-09-01T12:09:17.339Z,21.32
2023-09-01T12:14:39.412Z,21.37
2023-09-01T12:20:03.082Z,21.39
2023-09-01T12:25:24.979Z,21.40
2023-09-01T12:30:46.854Z,21.39
2023-09-01T12:36:08.885Z,21.39
2023-09-01T12:41:31.062Z,21.40
2023-09-01T12:46:52.914Z,21.41
2023-09-01T12:52:17.656Z,21.42
2023-09-01T12:57:39.930Z,21.43
2023-09-01T13:03:02.128Z,21.44
2023-09-01T13:08:24.211Z,21.42
2023-09-01T13:13:46.170Z,21.41
2023-09-01T13:19:08.090Z,21.42
2023-09-01T13:24:30.207Z,21.43
2023-09-01T13:29:52.943Z,21.44
2023-09-01T13:35:14.882Z,21.45
2023-09-01T13:40:38.792Z,21.46
2023-09-01T13:46:23.481Z,21.48
2023-09-01T13:51:45.398Z,21.48
2023-09-01T13:57:07.422Z,21.49
2023-09-01T14:02:29.523Z,21.47
2023-09-01T14:07:51.651Z,21.46
2023-09-01T14:13:13.952Z,21.44
2023-09-01T14:18:36.124Z,21.43
2023-09-01T14:23:57.998Z,21.43
2023-09-01T14:29:20.445Z,21.40
2023-09-01T14:34:42.367Z,21.39
2023-09-01T14:40:04.731Z,21.39
2023-09-01T14:45:26.658Z,21.39
2023-09-01T14:50:49.864Z,21.40
2023-09-01T14:56:13.653Z,21.41
2023-09-01T15:01:37.719Z,21.42
2023-09-01T15:06:59.596Z,21.42
2023-09-01T15:12:21.640Z,21.44
2023-09-01T15:17:43.882Z,21.46
2023-09-01T15:23:09.137Z,21.48
2023-09-01T15:28:31.174Z,21.48
2023-09-01T15:33:53.352Z,21.47
2023-09-01T15:39:16.628Z,21.47
2023-09-01T15:44:38.562Z,21.44
2023-09-01T15:50:00.628Z,21.43
2023-09-01T15:55:22.492Z,21.44
2023-09-01T16:00:45.967Z,21.46
2023-09-01T16:06:07.954Z,21.48
2023-09-01T16:11:30.367Z,21.50
2023-09-01T16:16:54.870Z,21.51
2023-09-01T16:22:18.747Z,21.50
2023-09-01T16:27:44.341Z,21.50
2023-09-01T16:33:07.791Z,21.49
2023-09-01T16:38:30.737Z,21.47
2023-09-01T16:43:53.805Z,21.44
2023-09-01T16:49:15.732Z,21.41
2023-09-01T16:54:37.597Z,21.40
2023-09-01T16:59:59.517Z,21.38
2023-09-01T17:05:21.457Z,21.38
2023-09-01T17:10:43.396Z,21.35
2023-09-01T17:16:05.319Z,21.34
2023-09-01T17:21:27.135Z,21.32
2023-09-01T17:26:49.043Z,21.29
2023-09-01T17:32:11.085Z,21.29
2023-09-01T17:37:33.035Z,21.27
2023-09-01T17:42:54.931Z,21.25
2023-09-01T17:48:16.878Z,21.25
2023-09-01T17:53:38.797Z,21.21
2023-09-01T17:59:00.745Z,21.19
2023-09-01T18:04:23.379Z,21.20
2023-09-01T18:09:45.227Z,21.17
2023-09-01T18:15:07.624Z,21.16
2023-09-01T18:20:33.141Z,21.14
2023-09-01T18:25:54.987Z,21.12
2023-09-01T18:31:24.810Z,21.13
2023-09-01T18:36:46.736Z,21.10
2023-09-01T18:42:35.161Z,21.09
2023-09-01T18:47:57.494Z,21.07
2023-09-01T18:53:19.919Z,21.04
2023-09-01T18:58:47.747Z,21.04
2023-09-01T19:04:09.874Z,21.02
2023-09-01T19:09:31.702Z,21.02
2023-09-01T19:14:54.357Z,21.02
2023-09-01T19:20:26.159Z,21.03
2023-09-01T19:25:48.085Z,21.00
2023-09-01T19:31:10.679Z,21.00
2023-09-01T19:36:33.950Z,20.99
2023-09-01T19:41:59.695Z,20.97
2023-09-01T19:47:21.731Z,20.97
2023-09-01T19:52:43.686Z,20.96
2023-09-01T19:58:05.736Z,20.96
2023-09-01T20:03:31.250Z,20.95
2023-09-01T20:08:54.232Z,20.94
2023-09-01T20:14:17.641Z,20.92
2023-09-01T20:19:44.269Z,20.93
2023-09-01T20:25:06.282Z,20.90
2023-09-01T20:30:28.477Z,20.89
2023-09-01T20:35:50.494Z,20.89
2023-09-01T20:41:12.455Z,20.87
2023-09-01T20:46:35.905Z,20.88
2023-09-01T20:51:58.074Z,20.87
2023-09-01T20:57:20.227Z,20.86
2023-09-01T21:02:47.218Z,20.86
2023-09-01T21:08:09.134Z,20.84
2023-09-01T21:13:31.025Z,20.84
2023-09-01T21:18:53.480Z,20.83
2023-09-01T21:24:15.434Z,20.82
2023-09-01T21:29:40.666Z,20.83
2023-09-01T21:35:02.567Z,20.81
2023-09-01T21:40:27.408Z,20.80
2023-09-01T21:45:49.359Z,20.79
2023-09-01T21:51:11.261Z,20.79
2023-09-01T21:56:33.427Z,20.78
2023-09-01T22:01:55.286Z,20.78
2023-09-01T22:07:17.181Z,20.77
2023-09-01T22:12:40.294Z,20.76
2023-09-01T22:18:02.219Z,20.76
2023-09-01T22:23:24.217Z,20.75
2023-09-01T22:28:46.146Z,20.75
2023-09-01T22:34:08.206Z,20.74
2023-09-01T22:39:30.776Z,20.74
2023-09-01T22:44:52.709Z,20.74
2023-09-01T22:50:14.764Z,20.73
2023-09-01T22:55:36.676Z,20.72
2023-09-01T23:00:58.622Z,20.72
2023-09-01T23:06:20.498Z,20.72
2023-09-01T23:11:42.538Z,20.72
2023-09-01T23:17:04.796Z,20.72
2023-09-01T23:22:27.895Z,20.73
2023-09-01T23:27:49.826Z,20.73
2023-09-01T23:33:11.749Z,20.73
2023-09-01T23:38:33.690Z,20.74
2023-09-01T23:43:55.572Z,20.73
2023-09-01T23:49:17.686Z,20.74
2023-09-01T23:54:40.067Z,20.74
